createdAt,value
2023-04-21T00:00:09.290Z,95.93
2023-04-21T00:02:39.562Z,96.00
2023-04-21T00:05:10.110Z,95.85
2023-04-21T00:07:38.618Z,95.86
2023-04-21T00:10:09.464Z,96.09
2023-04-21T00:12:38.040Z,96.03
2023-04-21T00:15:06.105Z,96.08
2023-04-21T00:17:34.248Z,96.21
2023-04-21T00:20:01.536Z,96.15
2023-04-21T00:22:29.093Z,96.25
2023-04-21T00:24:56.273Z,96.27
2023-04-21T00:27:23.487Z,96.46
2023-04-21T00:29:50.918Z,96.14
2023-04-21T00:32:18.045Z,95.93
2023-04-21T00:34:45.464Z,95.90
2023-04-21T00:37:12.604Z,96.15
2023-04-21T00:39:40.176Z,96.34
2023-04-21T00:42:07.523Z,96.16
2023-04-21T00:44:35.893Z,96.33
2023-04-21T00:47:04.461Z,96.32
2023-04-21T00:49:32.468Z,96.17
2023-04-21T00:52:00.107Z,95.84
2023-04-21T00:54:27.258Z,95.89
2023-04-21T00:56:54.816Z,96.06
2023-04-21T00:59:22.186Z,96.18
2023-04-21T01:01:49.533Z,96.34
2023-04-21T01:04:16.951Z,96.53
2023-04-21T01:06:44.452Z,96.53
2023-04-21T01:09:14.661Z,96.68
2023-04-21T01:11:41.744Z,96.63
2023-04-21T01:14:09.103Z,96.90
2023-04-21T01:16:39.418Z,97.06
2023-04-21T01:19:07.357Z,97.45
2023-04-21T01:21:41.263Z,97.48
2023-04-21T01:24:08.456Z,97.78
2023-04-21T01:26:35.768Z,97.71
2023-04-21T01:29:03.127Z,97.82
2023-04-21T01:31:32.285Z,97.84
2023-04-21T01:34:03.878Z,97.81
2023-04-21T01:36:31.541Z,97.68
2023-04-21T01:38:58.787Z,97.75
2023-04-21T01:41:26.063Z,97.85
2023-04-21T01:43:54.833Z,98.11
2023-04-21T01:46:24.458Z,98.06
2023-04-21T01:48:51.695Z,98.08
2023-04-21T01:51:18.946Z,97.86
2023-04-21T01:53:46.295Z,97.96
2023-04-21T01:56:14.779Z,97.81
2023-04-21T01:58:41.960Z,97.76
2023-04-21T02:01:09.183Z,98.13
2023-04-21T02:03:36.918Z,98.30
2023-04-21T02:06:05.559Z,98.13
2023-04-21T02:08:33.393Z,98.36
2023-04-21T02:11:01.465Z,98.21
2023-04-21T02:13:29.235Z,98.28
2023-04-21T02:16:09.642Z,98.27
2023-04-21T02:18:41.040Z,98.08
2023-04-21T02:21:08.222Z,98.04
2023-04-21T02:23:35.557Z,98.02
2023-04-21T02:26:02.930Z,98.60
2023-04-21T02:28:33.324Z,98.69
2023-04-21T02:31:00.523Z,98.75
2023-04-21T02:33:27.996Z,98.79
2023-04-21T02:35:55.589Z,98.88
2023-04-21T02:38:24.692Z,99.06
2023-04-21T02:40:51.936Z,99.13
2023-04-21T02:43:19.918Z,99.27
2023-04-21T02:45:49.210Z,99.49
2023-04-21T02:48:22.397Z,99.98
2023-04-21T02:50:52.824Z,100.00
2023-04-21T02:53:20.614Z,100.00
2023-04-21T02:55:47.756Z,100.00
2023-04-21T02:58:16.118Z,100.00
2023-04-21T03:00:43.500Z,100.00
2023-04-21T03:03:11.061Z,100.00
2023-04-21T03:05:39.203Z,100.00
2023-04-21T03:08:06.360Z,100.00
2023-04-21T03:10:37.342Z,100.00
2023-04-21T03:13:04.438Z,100.00
2023-04-21T03:15:32.938Z,100.00
2023-04-21T03:18:02.457Z,100.00
2023-04-21T03:20:30.087Z,100.00
2023-04-21T03:22:59.191Z,100.00
2023-04-21T03:25:29.314Z,100.00
2023-04-21T03:27:56.349Z,100.00
2023-04-21T03:30:25.963Z,100.00
2023-04-21T03:32:55.114Z,100.00
2023-04-21T03:35:22.556Z,100.00
2023-04-21T03:37:49.967Z,100.00
2023-04-21T03:40:17.120Z,100.00
2023-04-21T03:42:44.375Z,100.00
2023-04-21T03:45:13.733Z,100.00
2023-04-21T03:47:41.200Z,100.00
2023-04-21T03:50:09.112Z,100.00
2023-04-21T03:52:37.380Z,100.00
2023-04-21T03:55:08.634Z,100.00
2023-04-21T03:57:36.686Z,100.00
2023-04-21T04:00:05.171Z,100.00
2023-04-21T04:02:40.513Z,100.00
2023-04-21T04:05:08.373Z,100.00
2023-04-21T04:07:35.897Z,100.00
2023-04-21T04:10:03.907Z,100.00
2023-04-21T04:12:31.707Z,100.00
2023-04-21T04:14:58.845Z,100.00
2023-04-21T04:17:26.501Z,100.00
2023-04-21T04:19:53.839Z,100.00
2023-04-21T04:22:21.187Z,100.00
2023-04-21T04:24:48.288Z,100.00
2023-04-21T04:27:16.304Z,100.00
2023-04-21T04:29:46.735Z,100.00
2023-04-21T04:32:14.906Z,100.00
2023-04-21T04:34:42.069Z,100.00
2023-04-21T04:37:10.744Z,100.00
2023-04-21T04:39:38.686Z,100.00
2023-04-21T04:42:09.434Z,100.00
2023-04-21T04:44:36.651Z,100.00
2023-04-21T04:47:04.875Z,100.00
2023-04-21T04:49:33.458Z,100.00
2023-04-21T04:52:01.653Z,100.00
2023-04-21T04:54:30.829Z,100.00
2023-04-21T04:56:59.186Z,100.00
2023-04-21T04:59:27.952Z,100.00
2023-04-21T05:02:00.249Z,100.00
2023-04-21T05:04:29.193Z,100.00
2023-04-21T05:06:56.846Z,100.00
2023-04-21T05:09:25.628Z,100.00
2023-04-21T05:11:52.860Z,100.00
2023-04-21T05:14:20.663Z,100.00
2023-04-21T05:16:48.314Z,100.00
2023-04-21T05:19:18.499Z,100.00
2023-04-21T05:21:45.790Z,100.00
2023-04-21T05:24:13.215Z,100.00
2023-04-21T05:26:44.898Z,100.00
2023-04-21T05:29:12.112Z,100.00
2023-04-21T05:31:39.880Z,100.00
2023-04-21T05:34:07.491Z,100.00
2023-04-21T05:36:36.490Z,100.00
2023-04-21T05:39:03.896Z,100.00
2023-04-21T05:41:31.294Z,100.00
2023-04-21T05:43:58.910Z,100.00
2023-04-21T05:46:26.318Z,100.00
2023-04-21T05:48:54.023Z,100.00
2023-04-21T05:51:22.952Z,100.00
2023-04-21T05:53:50.056Z,100.00
2023-04-21T05:56:18.336Z,100.00
2023-04-21T05:58:46.001Z,100.00
2023-04-21T06:01:14.937Z,100.00
2023-04-21T06:03:42.846Z,100.00
2023-04-21T06:06:11.245Z,100.00
2023-04-21T06:08:39.037Z,100.00
2023-04-21T06:11:06.569Z,100.00
2023-04-21T06:13:34.755Z,100.00
2023-04-21T06:16:02.616Z,100.00
2023-04-21T06:18:30.673Z,100.00
2023-04-21T06:20:58.165Z,100.00
2023-04-21T06:23:25.752Z,100.00
2023-04-21T06:26:00.452Z,100.00
2023-04-21T06:28:28.940Z,100.00
2023-04-21T06:30:56.452Z,100.00
2023-04-21T06:33:23.945Z,100.00
2023-04-21T06:35:51.258Z,100.00
2023-04-21T06:38:19.124Z,100.00
2023-04-21T06:40:46.791Z,100.00
2023-04-21T06:43:14.348Z,100.00
2023-04-21T06:45:42.623Z,100.00
2023-04-21T06:48:10.659Z,100.00
2023-04-21T06:50:38.360Z,100.00
2023-04-21T06:53:06.088Z,100.00
2023-04-21T06:55:34.712Z,100.00
2023-04-21T06:58:02.002Z,100.00
2023-04-21T07:00:29.844Z,100.00
2023-04-21T07:02:57.859Z,100.00
2023-04-21T07:05:25.594Z,100.00
2023-04-21T07:07:56.524Z,100.00
2023-04-21T07:10:26.685Z,100.00
2023-04-21T07:12:54.921Z,100.00
2023-04-21T07:15:26.916Z,100.00
2023-04-21T07:17:54.545Z,100.00
2023-04-21T07:20:23.099Z,100.00
2023-04-21T07:22:50.974Z,100.00
2023-04-21T07:25:19.297Z,100.00
2023-04-21T07:27:49.109Z,100.00
2023-04-21T07:30:16.823Z,100.00
2023-04-21T07:32:45.946Z,100.00
2023-04-21T07:35:13.782Z,100.00
2023-04-21T07:37:41.223Z,100.00
2023-04-21T07:40:11.562Z,100.00
2023-04-21T07:42:39.027Z,100.00
2023-04-21T07:45:07.096Z,100.00
2023-04-21T07:47:34.607Z,100.00
2023-04-21T07:50:02.718Z,100.00
2023-04-21T07:52:31.302Z,100.00
2023-04-21T07:54:58.650Z,100.00
2023-04-21T07:57:27.049Z,100.00
2023-04-21T07:59:55.818Z,100.00
2023-04-21T08:02:23.785Z,100.00
2023-04-21T08:04:53.859Z,100.00
2023-04-21T08:07:22.575Z,100.00
2023-04-21T08:09:50.468Z,100.00
2023-04-21T08:12:18.946Z,100.00
2023-04-21T08:14:46.791Z,100.00
2023-04-21T08:17:14.777Z,100.00
2023-04-21T08:19:43.365Z,100.00
2023-04-21T08:22:11.356Z,100.00
2023-04-21T08:24:39.326Z,100.00
2023-04-21T08:27:06.466Z,100.00
2023-04-21T08:29:36.500Z,100.00
2023-04-21T08:32:04.390Z,100.00
2023-04-21T08:34:32.245Z,100.00
2023-04-21T08:37:02.559Z,100.00
2023-04-21T08:39:30.596Z,100.00
2023-04-21T08:42:01.225Z,100.00
2023-04-21T08:44:31.549Z,100.00
2023-04-21T08:47:01.271Z,100.00
2023-04-21T08:49:29.448Z,100.00
2023-04-21T08:51:57.302Z,100.00
2023-04-21T08:54:28.045Z,100.00
2023-04-21T08:57:08.044Z,100.00
2023-04-21T08:59:44.453Z,100.00
2023-04-21T09:02:16.525Z,100.00
2023-04-21T09:04:45.859Z,100.00
2023-04-21T09:07:30.787Z,100.00
2023-04-21T09:09:59.779Z,100.00
2023-04-21T09:12:45.868Z,100.00
2023-04-21T09:15:13.351Z,100.00
2023-04-21T09:17:41.901Z,100.00
2023-04-21T09:20:17.759Z,100.00
2023-04-21T09:22:47.704Z,100.00
2023-04-21T09:25:22.006Z,100.00
2023-04-21T09:27:49.508Z,100.00
2023-04-21T09:30:20.242Z,100.00
2023-04-21T09:32:48.000Z,99.86
2023-04-21T09:35:15.761Z,99.56
2023-04-21T09:37:43.787Z,99.64
2023-04-21T09:40:15.064Z,99.84
2023-04-21T09:42:44.457Z,100.00
2023-04-21T09:45:28.908Z,99.84
2023-04-21T09:48:01.498Z,99.70
2023-04-21T09:50:44.764Z,98.89
2023-04-21T09:53:17.153Z,98.82
2023-04-21T09:55:46.078Z,98.09
2023-04-21T09:58:15.105Z,98.24
2023-04-21T10:00:42.632Z,98.22
2023-04-21T10:03:11.150Z,98.41
2023-04-21T10:05:42.160Z,98.21
2023-04-21T10:08:11.892Z,98.44
2023-04-21T10:10:39.810Z,98.19
2023-04-21T10:13:14.387Z,98.39
2023-04-21T10:15:42.054Z,98.41
2023-04-21T10:18:21.475Z,98.22
2023-04-21T10:20:55.382Z,98.19
2023-04-21T10:23:31.047Z,97.66
2023-04-21T10:26:06.280Z,97.16
2023-04-21T10:28:51.964Z,96.93
2023-04-21T10:31:27.235Z,97.34
2023-04-21T10:34:07.308Z,96.95
2023-04-21T10:36:53.733Z,96.94
2023-04-21T10:39:39.641Z,96.94
2023-04-21T10:42:13.258Z,97.04
2023-04-21T10:44:44.461Z,96.35
2023-04-21T10:47:13.120Z,96.54
2023-04-21T10:49:40.624Z,96.88
2023-04-21T10:52:10.432Z,96.15
2023-04-21T10:54:44.864Z,95.28
2023-04-21T10:57:14.350Z,94.75
2023-04-21T10:59:41.914Z,95.78
2023-04-21T11:02:16.289Z,94.97
2023-04-21T11:04:50.107Z,95.02
2023-04-21T11:07:25.258Z,95.21
2023-04-21T11:10:03.557Z,94.02
2023-04-21T11:12:39.006Z,93.93
2023-04-21T11:15:08.361Z,93.62
2023-04-21T11:17:37.819Z,93.95
2023-04-21T11:20:07.029Z,93.78
2023-04-21T11:22:36.303Z,93.79
2023-04-21T11:25:05.387Z,93.76
2023-04-21T11:27:33.568Z,93.43
2023-04-21T11:30:02.970Z,93.59
2023-04-21T11:32:30.672Z,92.84
2023-04-21T11:34:57.995Z,92.39
2023-04-21T11:37:29.848Z,92.46
2023-04-21T11:39:59.357Z,92.45
2023-04-21T11:42:26.503Z,92.21
2023-04-21T11:44:55.397Z,92.90
2023-04-21T11:47:24.904Z,92.77
2023-04-21T11:49:57.060Z,92.81
2023-04-21T11:52:26.981Z,92.65
2023-04-21T11:54:56.755Z,93.24
2023-04-21T11:57:26.160Z,93.47
2023-04-21T11:59:53.559Z,92.94
2023-04-21T12:02:22.521Z,93.18
2023-04-21T12:05:07.176Z,93.84
2023-04-21T12:07:41.347Z,93.86
2023-04-21T12:10:12.530Z,93.39
2023-04-21T12:12:42.948Z,93.61
2023-04-21T12:15:11.389Z,93.56
2023-04-21T12:17:39.396Z,93.70
2023-04-21T12:20:08.019Z,93.88
2023-04-21T12:22:35.678Z,94.47
2023-04-21T12:25:02.857Z,94.39
2023-04-21T12:27:30.699Z,93.53
2023-04-21T12:29:59.901Z,92.98
2023-04-21T12:32:27.315Z,92.51
2023-04-21T12:34:54.635Z,92.71
2023-04-21T12:37:22.660Z,92.63
2023-04-21T12:39:50.071Z,92.60
2023-04-21T12:42:17.601Z,92.28
2023-04-21T12:44:44.915Z,92.53
2023-04-21T12:47:12.191Z,92.55
2023-04-21T12:49:41.507Z,92.53
2023-04-21T12:52:08.650Z,92.56
2023-04-21T12:54:36.207Z,92.79
2023-04-21T12:57:08.421Z,92.67
2023-04-21T12:59:35.654Z,92.95
2023-04-21T13:02:03.060Z,92.44
2023-04-21T13:04:31.743Z,92.17
2023-04-21T13:07:01.273Z,92.19
2023-04-21T13:09:29.910Z,91.96
2023-04-21T13:11:57.822Z,90.95
2023-04-21T13:14:25.763Z,90.67
2023-04-21T13:16:53.501Z,90.37
2023-04-21T13:19:21.030Z,90.35
2023-04-21T13:21:48.264Z,90.19
2023-04-21T13:24:15.819Z,90.27
2023-04-21T13:26:43.155Z,90.43
2023-04-21T13:29:10.535Z,89.74
2023-04-21T13:31:38.038Z,89.61
2023-04-21T13:34:05.756Z,89.26
2023-04-21T13:36:33.015Z,89.22
2023-04-21T13:39:01.057Z,89.13
2023-04-21T13:41:28.463Z,88.93
2023-04-21T13:43:56.246Z,89.03
2023-04-21T13:46:25.531Z,88.82
2023-04-21T13:48:53.477Z,88.52
2023-04-21T13:51:20.914Z,88.50
2023-04-21T13:53:48.827Z,88.84
2023-04-21T13:56:17.296Z,88.49
2023-04-21T13:58:44.422Z,88.28
2023-04-21T14:01:13.802Z,88.12
2023-04-21T14:03:41.920Z,88.38
2023-04-21T14:06:09.235Z,88.54
2023-04-21T14:08:36.747Z,88.90
2023-04-21T14:11:06.297Z,88.75
2023-04-21T14:13:39.399Z,88.28
2023-04-21T14:16:07.156Z,88.37
2023-04-21T14:18:34.502Z,88.29
2023-04-21T14:21:02.075Z,88.37
2023-04-21T14:23:30.563Z,87.63
2023-04-21T14:25:59.157Z,87.49
2023-04-21T14:28:26.314Z,87.57
2023-04-21T14:30:53.975Z,87.14
2023-04-21T14:33:21.376Z,86.93
2023-04-21T14:35:48.771Z,86.98
2023-04-21T14:38:16.170Z,86.92
2023-04-21T14:40:45.394Z,86.87
2023-04-21T14:43:12.889Z,86.71
2023-04-21T14:45:40.667Z,86.64
2023-04-21T14:48:08.127Z,86.87
2023-04-21T14:50:35.610Z,87.17
2023-04-21T14:53:03.060Z,87.66
2023-04-21T14:55:30.713Z,87.47
2023-04-21T14:57:59.412Z,87.54
2023-04-21T15:00:27.462Z,87.52
2023-04-21T15:02:55.186Z,86.77
2023-04-21T15:05:23.396Z,86.27
2023-04-21T15:07:51.248Z,86.34
2023-04-21T15:10:18.853Z,86.24
2023-04-21T15:12:47.175Z,85.83
2023-04-21T15:15:14.500Z,86.08
2023-04-21T15:17:42.074Z,86.16
2023-04-21T15:20:10.416Z,86.36
2023-04-21T15:22:38.029Z,86.28
2023-04-21T15:25:06.301Z,86.26
2023-04-21T15:27:34.475Z,85.88
2023-04-21T15:30:03.919Z,85.36
2023-04-21T15:32:31.673Z,85.37
2023-04-21T15:35:01.178Z,85.33
2023-04-21T15:37:28.500Z,85.85
2023-04-21T15:39:56.480Z,85.76
2023-04-21T15:42:24.033Z,85.78
2023-04-21T15:44:53.337Z,85.94
2023-04-21T15:47:23.282Z,86.02
2023-04-21T15:49:50.668Z,86.11
2023-04-21T15:52:21.610Z,86.24
2023-04-21T15:54:50.173Z,86.29
2023-04-21T15:57:17.546Z,86.07
2023-04-21T15:59:45.301Z,86.05
2023-04-21T16:02:12.860Z,85.94
2023-04-21T16:04:41.345Z,85.87
2023-04-21T16:07:09.432Z,86.11
2023-04-21T16:09:40.126Z,86.24
2023-04-21T16:12:09.973Z,86.29
2023-04-21T16:14:53.472Z,86.37
2023-04-21T16:17:26.621Z,86.65
2023-04-21T16:19:54.197Z,86.81
2023-04-21T16:22:21.915Z,87.15
2023-04-21T16:24:49.889Z,87.00
2023-04-21T16:27:17.373Z,87.48
2023-04-21T16:29:45.008Z,87.43
2023-04-21T16:32:12.400Z,87.56
2023-04-21T16:34:40.977Z,87.97
2023-04-21T16:37:08.699Z,88.09
2023-04-21T16:39:37.166Z,88.30
2023-04-21T16:42:04.620Z,88.52
2023-04-21T16:44:32.129Z,88.54
2023-04-21T16:47:00.120Z,88.65
2023-04-21T16:49:29.786Z,88.71
2023-04-21T16:51:57.482Z,88.80
2023-04-21T16:54:26.744Z,89.01
2023-04-21T16:56:53.950Z,89.12
2023-04-21T16:59:23.731Z,89.02
2023-04-21T17:01:50.898Z,89.08
2023-04-21T17:04:18.568Z,88.92
2023-04-21T17:06:47.802Z,89.16
2023-04-21T17:09:16.649Z,89.17
2023-04-21T17:11:45.730Z,89.15
2023-04-21T17:14:13.803Z,89.25
2023-04-21T17:16:41.231Z,89.04
2023-04-21T17:19:08.952Z,88.21
2023-04-21T17:21:36.281Z,87.94
2023-04-21T17:24:03.769Z,87.97
2023-04-21T17:26:31.290Z,87.93
2023-04-21T17:28:59.149Z,87.85
2023-04-21T17:31:28.937Z,87.83
2023-04-21T17:33:57.040Z,87.82
2023-04-21T17:36:29.039Z,88.10
2023-04-21T17:38:57.909Z,88.09
2023-04-21T17:41:25.544Z,88.07
2023-04-21T17:43:54.597Z,87.56
2023-04-21T17:46:24.301Z,87.40
2023-04-21T17:48:52.582Z,87.10
2023-04-21T17:51:20.391Z,86.79
2023-04-21T17:53:49.749Z,86.58
2023-04-21T17:56:18.378Z,86.54
2023-04-21T17:58:46.990Z,86.30
2023-04-21T18:01:15.120Z,86.46
2023-04-21T18:03:42.998Z,86.51
2023-04-21T18:06:11.422Z,86.58
2023-04-21T18:08:39.046Z,86.55
2023-04-21T18:11:07.345Z,86.96
2023-04-21T18:13:35.957Z,86.93
2023-04-21T18:16:03.527Z,87.00
2023-04-21T18:18:31.026Z,87.18
2023-04-21T18:20:59.303Z,87.29
2023-04-21T18:23:26.650Z,87.46
2023-04-21T18:25:54.253Z,87.41
2023-04-21T18:28:21.747Z,87.61
2023-04-21T18:30:49.739Z,87.70
2023-04-21T18:33:18.666Z,87.89
2023-04-21T18:35:46.568Z,87.81
2023-04-21T18:38:14.393Z,87.91
2023-04-21T18:40:41.626Z,87.65
2023-04-21T18:43:10.501Z,87.57
2023-04-21T18:45:38.667Z,87.53
2023-04-21T18:48:06.321Z,87.76
2023-04-21T18:50:38.954Z,87.58
2023-04-21T18:53:07.095Z,87.69
2023-04-21T18:55:35.682Z,87.37
2023-04-21T18:58:03.340Z,87.27
2023-04-21T19:00:31.507Z,87.18
2023-04-21T19:03:01.019Z,87.12
2023-04-21T19:05:31.107Z,87.23
2023-04-21T19:08:00.043Z,87.28
2023-04-21T19:10:28.102Z,87.23
2023-04-21T19:12:56.389Z,87.21
2023-04-21T19:15:23.747Z,87.43
2023-04-21T19:17:51.903Z,87.44
2023-04-21T19:20:20.285Z,87.34
2023-04-21T19:22:47.487Z,87.26
2023-04-21T19:25:15.193Z,87.17
2023-04-21T19:27:43.467Z,87.07
2023-04-21T19:30:11.953Z,87.16
2023-04-21T19:32:41.075Z,87.30
2023-04-21T19:35:08.968Z,87.21
2023-04-21T19:37:36.484Z,87.37
2023-04-21T19:40:05.077Z,87.40
2023-04-21T19:42:32.536Z,87.55
2023-04-21T19:44:59.779Z,87.41
2023-04-21T19:47:27.026Z,87.37
2023-04-21T19:49:54.077Z,87.35
2023-04-21T19:52:21.215Z,87.09
2023-04-21T19:54:48.668Z,87.04
2023-04-21T19:57:16.126Z,87.12
2023-04-21T19:59:43.484Z,87.23
2023-04-21T20:02:10.696Z,87.11
2023-04-21T20:04:38.919Z,87.12
2023-04-21T20:07:06.672Z,87.02
2023-04-21T20:09:34.856Z,86.90
2023-04-21T20:12:02.116Z,86.60
2023-04-21T20:14:29.553Z,86.83
2023-04-21T20:16:57.430Z,86.85
2023-04-21T20:19:26.681Z,86.89
2023-04-21T20:21:53.879Z,86.72
2023-04-21T20:24:21.122Z,86.81
2023-04-21T20:26:49.200Z,86.72
2023-04-21T20:29:16.346Z,86.55
2023-04-21T20:31:45.241Z,86.66
2023-04-21T20:34:12.793Z,86.75
2023-04-21T20:36:40.267Z,86.93
2023-04-21T20:39:08.083Z,86.93
2023-04-21T20:41:35.210Z,87.00
2023-04-21T20:44:03.542Z,86.82
2023-04-21T20:46:31.894Z,86.97
2023-04-21T20:48:59.289Z,86.79
2023-04-21T20:51:27.137Z,87.00
2023-04-21T20:53:54.327Z,86.76
2023-04-21T20:56:21.552Z,86.79
2023-04-21T20:58:48.797Z,86.47
2023-04-21T21:01:16.302Z,86.73
2023-04-21T21:03:45.627Z,86.61
2023-04-21T21:06:14.136Z,86.41
2023-04-21T21:08:41.619Z,86.49
2023-04-21T21:11:08.849Z,86.28
2023-04-21T21:13:36.195Z,86.64
2023-04-21T21:16:03.662Z,86.62
2023-04-21T21:18:34.180Z,86.75
2023-04-21T21:21:01.536Z,86.65
2023-04-21T21:23:29.115Z,86.57
2023-04-21T21:25:58.095Z,86.55
2023-04-21T21:28:25.243Z,86.59
2023-04-21T21:30:52.283Z,86.74
2023-04-21T21:33:19.849Z,86.67
2023-04-21T21:35:47.123Z,86.71
2023-04-21T21:38:14.973Z,86.63
2023-04-21T21:40:42.122Z,87.01
2023-04-21T21:43:10.492Z,87.13
2023-04-21T21:45:37.749Z,87.42
2023-04-21T21:48:04.909Z,87.80
2023-04-21T21:50:32.452Z,88.03
2023-04-21T21:53:00.133Z,88.36
2023-04-21T21:55:27.265Z,88.50
2023-04-21T21:57:54.312Z,88.44
2023-04-21T22:00:21.393Z,88.40
2023-04-21T22:02:48.611Z,88.43
2023-04-21T22:05:15.859Z,88.71
2023-04-21T22:07:43.109Z,88.43
2023-04-21T22:10:11.285Z,88.27
2023-04-21T22:12:38.446Z,88.16
2023-04-21T22:15:06.301Z,88.31
2023-04-21T22:17:37.551Z,88.43
2023-04-21T22:20:06.989Z,88.48
2023-04-21T22:22:35.239Z,88.50
2023-04-21T22:25:02.582Z,88.62
2023-04-21T22:27:32.802Z,88.56
2023-04-21T22:30:03.268Z,88.66
2023-04-21T22:32:31.833Z,88.77
2023-04-21T22:34:59.472Z,88.77
2023-04-21T22:37:27.240Z,88.75
2023-04-21T22:39:56.540Z,88.84
2023-04-21T22:42:23.799Z,88.94
2023-04-21T22:44:51.149Z,89.07
2023-04-21T22:47:18.334Z,88.98
2023-04-21T22:49:45.671Z,88.98
2023-04-21T22:52:12.809Z,89.05
2023-04-21T22:54:40.871Z,89.02
2023-04-21T22:57:08.455Z,89.33
2023-04-21T22:59:35.926Z,89.70
2023-04-21T23:02:04.908Z,89.45
2023-04-21T23:04:32.337Z,89.49
2023-04-21T23:06:59.500Z,89.78
2023-04-21T23:09:27.247Z,89.89
2023-04-21T23:11:54.408Z,89.42
2023-04-21T23:14:21.673Z,89.43
2023-04-21T23:16:48.767Z,89.30
2023-04-21T23:19:16.050Z,89.25
2023-04-21T23:21:43.235Z,89.50
2023-04-21T23:24:10.971Z,89.88
2023-04-21T23:26:38.431Z,90.20
2023-04-21T23:29:05.673Z,90.03
2023-04-21T23:31:34.147Z,90.13
2023-04-21T23:34:01.509Z,90.18
2023-04-21T23:36:28.758Z,90.18
2023-04-21T23:38:56.037Z,90.41
2023-04-21T23:41:23.121Z,90.47
2023-04-21T23:43:50.285Z,90.40
2023-04-21T23:46:17.564Z,90.32
2023-04-21T23:48:44.927Z,90.11
2023-04-21T23:51:12.132Z,90.40
2023-04-21T23:53:39.433Z,90.36
2023-04-21T23:56:07.113Z,90.32
2023-04-21T23:58:34.128Z,90.53
